Terminal Aerodrome Forecast
Issued by NWS Mobile, AL

Home | Current Version | Previous Version | Text Only | Print | Product List | Glossary On
Versions: 1 2 3 4 5 6 7 8 9 10 11 12 13 14 15 16 17 18 19 20 21 22 23 24 25 26 27
000
FTUS44 KMOB 302000 AAA
TAFPNS
TAF AMD
KPNS 302011Z 3020/3118 16012KT P6SM FEW020 SCT025 SCT040
      TEMPO 3020/3023 BKN025
     FM302300 17007KT P6SM VCTS SCT030CB
     FM311200 14004KT P6SM VCTS FEW015 SCT020CB
     FM311500 16008KT P6SM VCTS BKN030CB=

USA.gov is the U.S. government's official web portal to all federal, state and local government web resources and services.